Time;durP1;ratioP1;P1;durP2;ratioP2;P2;SDS_P1;SDS_P2;PMS_P1;PMS_P2;Temp;Humidity;BMP_temperature;BMP_pressure;BME280_temperature;BME280_humidity;BME280_pressure;Samples;Min_cycle;Max_cycle;Signal;HPM_P1;HPM_P2
2021/12/19 00:02:10;;;;;;;;;3.33;3.33;;;;;18.06;62.06;103807.97;5072270;28;8885;-67
2021/12/19 00:09:47;;;;;;;;;3.00;3.00;;;;;18.07;62.19;103798.31;5070585;28;9108;-67
2021/12/19 00:12:12;;;;;;;;;2.33;2.00;;;;;18.06;62.26;103792.13;5073128;28;9095;-67
2021/12/19 00:14:38;;;;;;;;;3.33;3.33;;;;;18.06;62.21;103784.19;5073041;28;8793;-67
2021/12/19 00:17:05;;;;;;;;;2.00;2.00;;;;;18.06;61.95;103783.28;5071735;28;9618;-67
2021/12/19 00:19:31;;;;;;;;;2.00;2.00;;;;;18.05;61.91;103781.47;5071072;28;8888;-67
2021/12/19 00:21:56;;;;;;;;;2.00;1.67;;;;;18.05;61.96;103787.66;5072670;28;8874;-67
2021/12/19 00:24:24;;;;;;;;;2.00;2.00;;;;;18.00;61.99;103769.81;5071960;28;8786;-67
2021/12/19 00:26:49;;;;;;;;;1.67;1.67;;;;;18.05;62.25;103787.66;5072439;28;8794;-67
2021/12/19 00:29:15;;;;;;;;;1.00;1.00;;;;;18.04;62.33;103780.56;5070859;28;8888;-67
2021/12/19 00:31:40;;;;;;;;;2.00;2.00;;;;;18.04;61.96;103775.28;5071785;28;8842;-68
2021/12/19 00:34:06;;;;;;;;;2.00;2.00;;;;;17.99;62.22;103763.66;5061770;28;8809;-68
2021/12/19 00:36:31;;;;;;;;;2.00;2.00;;;;;18.06;62.09;103781.53;5072507;28;8844;-68
2021/12/19 00:38:57;;;;;;;;;2.00;2.00;;;;;18.03;61.90;103770.84;5069088;28;8830;-67
2021/12/19 00:41:23;;;;;;;;;2.00;2.00;;;;;18.04;62.27;103772.63;5072649;28;8786;-68
2021/12/19 00:43:55;;;;;;;;;2.00;2.00;;;;;18.04;61.77;103772.63;5071989;28;8794;-68
2021/12/19 00:46:23;;;;;;;;;3.00;3.00;;;;;18.04;62.15;103761.16;5071978;28;8821;-68
2021/12/19 00:48:52;;;;;;;;;1.00;1.00;;;;;18.03;62.00;103762.91;5070310;28;8969;-67
2021/12/19 00:51:22;;;;;;;;;2.33;2.33;;;;;18.05;62.00;103757.66;5071675;28;8945;-68
2021/12/19 00:53:48;;;;;;;;;2.75;1.25;;;;;18.00;61.93;103748.66;5072252;28;8854;-68
2021/12/19 00:56:14;;;;;;;;;2.00;2.00;;;;;18.03;61.98;103756.72;5071928;28;8782;-67
2021/12/19 00:58:40;;;;;;;;;1.67;1.67;;;;;18.04;61.86;103761.16;5068669;28;8972;-68
2021/12/19 01:01:07;;;;;;;;;2.00;1.00;;;;;18.02;61.77;103752.28;5072274;28;8856;-67
2021/12/19 01:03:33;;;;;;;;;1.00;1.00;;;;;18.04;61.77;103754.13;5072001;28;8782;-67
2021/12/19 01:05:58;;;;;;;;;1.00;1.00;;;;;18.03;62.01;103755.00;5071291;28;9083;-68
2021/12/19 01:08:24;;;;;;;;;0.67;0.67;;;;;18.05;62.04;103753.28;5069404;28;8794;-68
2021/12/19 01:10:50;;;;;;;;;1.00;1.00;;;;;18.02;61.96;103747.00;5071548;28;8798;-68
2021/12/19 01:13:17;;;;;;;;;1.67;1.67;;;;;17.99;62.07;103736.31;5071243;28;8774;-67
2021/12/19 01:15:44;;;;;;;;;1.00;1.00;;;;;18.03;62.00;103747.06;5071580;28;9027;-68
2021/12/19 01:18:10;;;;;;;;;2.00;2.00;;;;;18.02;61.92;103739.97;5070903;28;8961;-66
2021/12/19 01:20:39;;;;;;;;;1.67;1.67;;;;;18.02;62.13;103745.25;5068458;28;9090;-66
2021/12/19 01:23:09;;;;;;;;;0.33;0.33;;;;;18.01;62.18;103739.88;5071927;28;8773;-67
2021/12/19 01:25:35;;;;;;;;;1.33;1.00;;;;;18.03;61.90;103733.84;5071758;28;9110;-66
2021/12/19 01:28:00;;;;;;;;;1.00;1.00;;;;;18.02;62.18;103736.41;5070384;28;8955;-66
2021/12/19 01:30:26;;;;;;;;;1.00;1.00;;;;;18.00;62.10;103727.50;5068470;28;8909;-67
2021/12/19 01:32:51;;;;;;;;;0.00;0.00;;;;;18.00;62.16;103728.41;5071205;28;8782;-67
2021/12/19 01:35:19;;;;;;;;;1.00;1.00;;;;;18.02;61.78;103721.47;5070515;28;8825;-67
2021/12/19 01:37:45;;;;;;;;;2.00;1.00;;;;;18.00;62.18;103725.78;5071031;28;8836;-68
2021/12/19 01:40:13;;;;;;;;;1.00;1.00;;;;;17.99;62.04;103715.16;5067335;28;8899;-66
2021/12/19 01:42:41;;;;;;;;;1.00;1.00;;;;;18.00;62.00;103717.84;5071436;28;8942;-67
2021/12/19 01:45:13;;;;;;;;;0.00;0.00;;;;;18.00;61.85;103719.56;5071455;28;9116;-67
2021/12/19 01:47:39;;;;;;;;;2.00;2.00;;;;;18.02;62.08;103723.19;5070436;28;9907;-67
2021/12/19 01:50:07;;;;;;;;;0.00;0.00;;;;;18.00;62.07;103724.88;5067650;28;9919;-67
2021/12/19 01:52:35;;;;;;;;;1.00;1.00;;;;;18.00;61.88;103727.50;5071009;28;8859;-67
2021/12/19 01:55:00;;;;;;;;;0.67;0.67;;;;;18.00;62.04;103711.66;5069952;28;9058;-67
2021/12/19 01:57:26;;;;;;;;;0.00;0.00;;;;;18.01;61.78;103711.72;5070958;28;9038;-67
2021/12/19 01:59:55;;;;;;;;;1.00;1.00;;;;;18.02;61.90;103710.88;5067429;28;8899;-67
2021/12/19 02:02:21;;;;;;;;;2.33;2.00;;;;;18.02;61.86;103718.81;5070264;28;8778;-67
2021/12/19 02:04:47;;;;;;;;;1.00;1.00;;;;;18.00;61.96;103714.28;5070910;28;8920;-66
2021/12/19 02:07:13;;;;;;;;;1.67;1.00;;;;;18.00;61.78;103717.84;5070669;28;10530;-66
2021/12/19 02:09:41;;;;;;;;;1.00;1.00;;;;;17.97;61.78;103709.81;5067255;28;8935;-66
2021/12/19 02:12:06;;;;;;;;;0.25;0.25;;;;;18.01;62.05;103713.47;5071068;28;8895;-67
2021/12/19 02:14:32;;;;;;;;;0.33;0.33;;;;;17.99;61.84;103701.94;5070745;28;8774;-66
2021/12/19 02:16:57;;;;;;;;;0.00;0.00;;;;;17.97;61.80;103700.97;5069785;28;8822;-66
2021/12/19 02:19:25;;;;;;;;;1.00;1.00;;;;;17.96;61.72;103700.06;5067440;28;8991;-67
2021/12/19 02:21:52;;;;;;;;;1.00;1.00;;;;;18.02;62.07;103704.69;5070763;28;8854;-66
2021/12/19 02:24:17;;;;;;;;;0.00;0.00;;;;;18.03;61.66;103703.84;5070199;28;8925;-66
2021/12/19 02:26:44;;;;;;;;;0.00;0.00;;;;;18.02;61.87;103699.41;5070337;28;8985;-67
2021/12/19 02:29:11;;;;;;;;;0.33;0.33;;;;;18.02;61.72;103688.81;5067935;28;8810;-66
2021/12/19 02:31:36;;;;;;;;;0.00;0.00;;;;;17.98;61.86;103693.09;5070222;28;9048;-67
2021/12/19 02:34:11;;;;;;;;;0.00;0.00;;;;;17.98;61.91;103687.81;5070433;28;9058;-67
2021/12/19 02:39:22;;;;;;;;;1.00;0.00;;;;;17.99;61.91;103686.06;5067368;28;8909;-68
2021/12/19 02:50:05;;;;;;;;;0.67;0.67;;;;;18.00;61.69;103672.91;5066936;28;8941;-67
2021/12/19 02:52:30;;;;;;;;;0.67;0.67;;;;;18.01;61.91;103669.41;5069757;28;8998;-67
2021/12/19 02:54:56;;;;;;;;;0.00;0.00;;;;;18.00;61.88;103678.19;5069865;28;8881;-67
2021/12/19 02:57:21;;;;;;;;;0.00;0.00;;;;;18.00;61.99;103667.59;5070197;28;8908;-67
2021/12/19 02:59:46;;;;;;;;;1.00;1.00;;;;;17.98;61.70;103656.09;5065647;28;8822;-67
2021/12/19 03:02:11;;;;;;;;;0.00;0.00;;;;;17.98;62.08;103652.53;5071486;28;8810;-68
2021/12/19 03:04:37;;;;;;;;;1.00;1.00;;;;;17.96;61.92;103652.47;5073140;28;8909;-67
2021/12/19 03:07:02;;;;;;;;;1.00;1.00;;;;;17.99;61.83;103651.72;5072190;28;8884;-68
2021/12/19 03:09:53;;;;;;;;;0.67;0.00;;;;;17.98;61.81;103639.34;5072437;28;8810;-67
2021/12/19 03:17:58;;;;;;;;;0.00;0.00;;;;;17.97;61.63;103624.31;5073766;28;9852;-67
2021/12/19 03:20:24;;;;;;;;;0.00;0.00;;;;;17.93;61.62;103622.41;5073349;28;8973;-67
2021/12/19 03:22:50;;;;;;;;;0.00;0.00;;;;;17.98;61.80;103624.38;5073877;28;9012;-67
2021/12/19 03:25:15;;;;;;;;;0.00;0.00;;;;;17.95;61.81;103610.16;5073829;28;8948;-68
2021/12/19 03:27:41;;;;;;;;;0.00;0.00;;;;;17.95;61.98;103610.16;5072982;28;8839;-67
2021/12/19 03:30:07;;;;;;;;;1.00;1.00;;;;;18.01;61.64;103607.72;5073939;28;8812;-67
2021/12/19 03:32:32;;;;;;;;;0.00;0.00;;;;;17.99;61.66;103604.13;5073978;28;8770;-67
2021/12/19 03:34:58;;;;;;;;;0.00;0.00;;;;;17.87;61.72;103591.38;5072781;28;9721;-67
2021/12/19 03:37:24;;;;;;;;;0.00;0.00;;;;;18.01;61.90;103605.06;5073677;28;8792;-66
2021/12/19 03:40:09;;;;;;;;;0.00;0.00;;;;;17.99;61.68;103598.84;5072822;28;8818;-67
2021/12/19 03:42:37;;;;;;;;;1.00;1.00;;;;;17.97;61.56;103590.84;5073763;28;10451;-67
2021/12/19 03:45:07;;;;;;;;;1.67;0.67;;;;;17.98;61.80;103600.59;5073059;28;9140;-66
2021/12/19 03:47:33;;;;;;;;;0.00;0.00;;;;;17.97;61.70;103605.81;5073171;28;9102;-67
2021/12/19 03:49:58;;;;;;;;;0.00;0.00;;;;;17.99;61.62;103606.78;5073067;28;8970;-68
2021/12/19 03:52:23;;;;;;;;;0.00;0.00;;;;;17.85;61.62;103585.13;5073622;28;9526;-68
2021/12/19 03:54:49;;;;;;;;;0.00;0.00;;;;;17.98;61.96;103597.94;5072422;28;8901;-67
2021/12/19 03:57:14;;;;;;;;;0.00;0.00;;;;;17.92;61.75;103587.13;5073561;28;8798;-67
2021/12/19 03:59:41;;;;;;;;;0.00;0.00;;;;;17.97;61.58;103588.19;5072865;28;8817;-68
2021/12/19 04:02:07;;;;;;;;;0.00;0.00;;;;;17.96;61.93;103589.03;5072400;28;8778;-67
2021/12/19 04:04:36;;;;;;;;;1.00;0.00;;;;;17.97;61.57;103582.00;5073239;28;8944;-67
2021/12/19 04:07:02;;;;;;;;;0.00;0.00;;;;;17.95;61.67;103579.34;5073266;28;8798;-67
2021/12/19 04:09:27;;;;;;;;;0.00;0.00;;;;;17.97;61.67;103571.44;5072550;28;8781;-67
2021/12/19 04:11:56;;;;;;;;;0.00;0.00;;;;;17.96;61.89;103567.03;5072762;28;11272;-67
2021/12/19 04:14:22;;;;;;;;;1.00;0.00;;;;;17.96;61.92;103564.38;5073099;28;8778;-67
2021/12/19 04:16:47;;;;;;;;;1.00;1.00;;;;;17.93;61.99;103558.97;5072077;28;8925;-67
2021/12/19 04:19:13;;;;;;;;;0.00;0.00;;;;;17.95;61.73;103571.41;5072826;28;9089;-67
2021/12/19 04:21:38;;;;;;;;;0.00;0.00;;;;;17.95;61.81;103566.13;5072640;28;8883;-67
2021/12/19 04:24:04;;;;;;;;;0.00;0.00;;;;;17.96;61.58;103561.72;5071675;28;8786;-67
2021/12/19 04:26:29;;;;;;;;;0.00;0.00;;;;;17.95;61.72;103552.00;5073024;28;8790;-67
2021/12/19 04:28:54;;;;;;;;;0.00;0.00;;;;;17.96;61.66;103551.16;5071624;28;8786;-67
2021/12/19 04:31:20;;;;;;;;;0.00;0.00;;;;;17.95;62.01;103549.34;5072950;28;8835;-67
2021/12/19 04:33:45;;;;;;;;;0.00;0.00;;;;;17.94;62.03;103551.09;5072258;28;8774;-67
2021/12/19 04:36:16;;;;;;;;;0.00;0.00;;;;;17.96;61.87;103549.38;5072097;28;8808;-66
2021/12/19 04:52:29;;;;;;;;;0.00;0.00;;;;;17.95;61.69;103525.56;5071223;28;8945;-66
2021/12/19 05:00:00;;;;;;;;;0.67;0.00;;;;;17.92;61.96;103539.53;5072052;28;8969;-66
2021/12/19 05:02:49;;;;;;;;;0.00;0.00;;;;;17.93;61.81;103529.88;5072240;28;8946;-67
2021/12/19 05:05:49;;;;;;;;;0.00;0.00;;;;;17.92;61.69;103528.09;5071348;28;8856;-67
2021/12/19 05:16:27;;;;;;;;;0.00;0.00;;;;;17.92;61.68;103547.47;5071908;28;8836;-68
2021/12/19 05:19:00;;;;;;;;;0.00;0.00;;;;;17.92;61.78;103547.47;5070603;28;8821;-68
2021/12/19 05:21:27;;;;;;;;;0.00;0.00;;;;;17.93;62.00;103545.75;5071668;28;8766;-67
2021/12/19 05:26:24;;;;;;;;;0.00;0.00;;;;;17.95;61.82;103546.72;5070691;28;8874;-67
2021/12/19 05:28:52;;;;;;;;;0.00;0.00;;;;;17.94;61.55;103542.25;5071488;28;8920;-67
2021/12/19 05:31:21;;;;;;;;;0.00;0.00;;;;;17.93;61.91;103537.81;5071582;28;8777;-68
2021/12/19 05:33:47;;;;;;;;;0.00;0.00;;;;;17.92;61.74;103541.31;5070231;28;8883;-68
2021/12/19 05:46:54;;;;;;;;;0.00;0.00;;;;;17.88;61.64;103520.91;5041662;28;8962;-67
2021/12/19 05:49:20;;;;;;;;;0.00;0.00;;;;;17.91;61.51;103535.13;5071460;28;8886;-70
2021/12/19 05:51:46;;;;;;;;;1.00;0.00;;;;;17.89;61.59;103520.94;5071242;28;8766;-68
2021/12/19 05:54:12;;;;;;;;;0.00;0.00;;;;;17.88;61.77;103513.88;5070762;28;8797;-68
2021/12/19 05:56:38;;;;;;;;;0.00;0.00;;;;;17.91;61.85;103508.69;5070934;28;8896;-68
2021/12/19 05:59:03;;;;;;;;;0.00;0.00;;;;;17.91;61.71;103515.72;5070886;28;8856;-67
2021/12/19 06:01:29;;;;;;;;;0.00;0.00;;;;;17.88;61.59;103498.03;5070605;28;8823;-68
2021/12/19 06:03:54;;;;;;;;;0.00;0.00;;;;;17.88;61.67;103504.19;5070891;28;9505;-66
2021/12/19 06:06:19;;;;;;;;;0.00;0.00;;;;;17.90;61.91;103509.53;5071265;28;8816;-66
2021/12/19 06:08:45;;;;;;;;;0.00;0.00;;;;;17.89;61.52;103502.44;5069912;28;8781;-67
2021/12/19 06:11:10;;;;;;;;;0.00;0.00;;;;;17.87;61.67;103504.16;5070802;28;9559;-66
2021/12/19 06:13:37;;;;;;;;;0.00;0.00;;;;;17.90;61.30;103514.81;5071086;28;8786;-67
2021/12/19 06:16:04;;;;;;;;;0.00;0.00;;;;;17.91;61.69;103507.81;5069845;28;8774;-66
2021/12/19 06:18:29;;;;;;;;;0.00;0.00;;;;;17.88;61.58;103504.19;5070800;28;8952;-66
2021/12/19 06:20:55;;;;;;;;;0.00;0.00;;;;;17.90;61.46;103517.47;5070745;28;8971;-66
2021/12/19 06:23:20;;;;;;;;;0.00;0.00;;;;;17.88;61.39;103506.84;5070181;28;8793;-66
2021/12/19 06:25:46;;;;;;;;;0.00;0.00;;;;;17.89;61.86;103505.09;5070700;28;8782;-67
2021/12/19 06:28:17;;;;;;;;;0.00;0.00;;;;;17.88;61.57;103495.38;5070689;28;8773;-68
2021/12/19 06:30:42;;;;;;;;;0.00;0.00;;;;;17.88;61.67;103501.53;5069533;28;8797;-68
2021/12/19 06:33:08;;;;;;;;;0.00;0.00;;;;;17.91;61.90;103491.94;5070937;28;8859;-68
2021/12/19 06:35:33;;;;;;;;;0.00;0.00;;;;;17.85;61.51;103488.22;5069649;28;8822;-66
2021/12/19 06:37:59;;;;;;;;;0.00;0.00;;;;;17.90;61.85;103485.75;5073074;28;8802;-69
2021/12/19 06:40:25;;;;;;;;;0.00;0.00;;;;;17.87;61.82;103485.66;5074460;28;8814;-66
2021/12/19 06:42:51;;;;;;;;;0.00;0.00;;;;;17.90;61.54;103483.09;5073429;28;8786;-66
2021/12/19 06:45:18;;;;;;;;;0.00;0.00;;;;;17.90;61.76;103479.56;5074663;28;8905;-69
2021/12/19 06:47:44;;;;;;;;;0.00;0.00;;;;;17.88;61.50;103487.47;5074498;28;8778;-69
2021/12/19 06:50:12;;;;;;;;;0.00;0.00;;;;;17.87;61.66;103488.31;5073675;28;9013;-68
2021/12/19 06:52:37;;;;;;;;;0.00;0.00;;;;;17.87;61.78;103483.00;5074577;28;11120;-66
2021/12/19 06:55:03;;;;;;;;;0.00;0.00;;;;;17.87;61.55;103488.31;5074065;28;8886;-66
2021/12/19 06:57:29;;;;;;;;;0.00;0.00;;;;;17.87;61.61;103483.00;5073534;28;8912;-66
2021/12/19 06:59:57;;;;;;;;;0.00;0.00;;;;;17.90;61.61;103476.91;5074096;28;8912;-67
2021/12/19 07:02:23;;;;;;;;;0.00;0.00;;;;;17.88;61.78;103477.75;5074305;28;8870;-67
2021/12/19 07:04:48;;;;;;;;;0.00;0.00;;;;;17.86;61.40;103481.22;5073591;28;8778;-67
2021/12/19 07:07:13;;;;;;;;;0.00;0.00;;;;;17.87;61.46;103477.72;5074046;28;8778;-67
2021/12/19 07:09:39;;;;;;;;;0.00;0.00;;;;;17.86;61.57;103468.91;5074191;28;8806;-67
2021/12/19 07:12:07;;;;;;;;;0.00;0.00;;;;;17.85;61.65;103474.13;5073480;28;8812;-68
2021/12/19 07:14:32;;;;;;;;;0.00;0.00;;;;;17.84;61.85;103469.69;5073915;28;9616;-67
2021/12/19 07:17:03;;;;;;;;;0.00;0.00;;;;;17.83;61.55;103468.81;5073942;28;8861;-68
2021/12/19 07:19:29;;;;;;;;;0.00;0.00;;;;;17.88;61.61;103473.34;5073330;28;8833;-68
2021/12/19 07:21:54;;;;;;;;;1.00;0.00;;;;;17.87;61.65;103467.16;5074011;28;8925;-67
2021/12/19 07:24:20;;;;;;;;;0.00;0.00;;;;;17.86;61.61;103460.06;5074062;28;8774;-67
2021/12/19 07:26:45;;;;;;;;;0.00;0.00;;;;;17.84;61.40;103456.50;5073023;28;9665;-67
2021/12/19 07:29:10;;;;;;;;;0.00;0.00;;;;;17.86;61.69;103460.06;5073559;28;8774;-67
2021/12/19 07:31:37;;;;;;;;;0.00;0.00;;;;;17.82;61.32;103456.44;5073776;28;8786;-67
2021/12/19 07:34:05;;;;;;;;;0.00;0.00;;;;;17.86;61.43;103466.25;5070015;28;8808;-67
2021/12/19 07:36:39;;;;;;;;;1.00;0.00;;;;;17.86;61.79;103462.72;5072695;28;8955;-66
2021/12/19 07:39:23;;;;;;;;;0.00;0.00;;;;;17.82;61.75;103452.88;5071839;28;8951;-67
2021/12/19 07:41:48;;;;;;;;;0.00;0.00;;;;;17.83;61.43;103458.22;5072406;28;8940;-66
2021/12/19 07:44:14;;;;;;;;;0.00;0.00;;;;;17.84;61.67;103460.03;5070986;28;9739;-66
2021/12/19 07:46:39;;;;;;;;;0.00;0.00;;;;;17.88;61.38;103463.69;5071346;28;8936;-64
2021/12/19 07:49:04;;;;;;;;;0.00;0.00;;;;;17.81;61.48;103456.34;5071367;28;8905;-66
2021/12/19 07:51:30;;;;;;;;;0.00;0.00;;;;;17.85;61.46;103463.53;5072077;28;8786;-66
2021/12/19 07:53:55;;;;;;;;;0.00;0.00;;;;;17.86;61.68;103460.97;5070173;28;8798;-66
2021/12/19 07:56:20;;;;;;;;;0.00;0.00;;;;;17.88;61.23;103463.69;5072063;28;8836;-65
2021/12/19 07:58:46;;;;;;;;;0.00;0.00;;;;;17.84;61.67;103456.50;5071661;28;8794;-66
2021/12/19 08:01:11;;;;;;;;;0.00;0.00;;;;;17.86;61.63;103457.41;5071400;28;8833;-66
2021/12/19 08:03:37;;;;;;;;;0.00;0.00;;;;;17.85;61.49;103463.53;5069767;28;8810;-66
2021/12/19 08:06:02;;;;;;;;;0.00;0.00;;;;;17.81;61.63;103451.06;5071496;28;9556;-65
2021/12/19 08:08:32;;;;;;;;;0.00;0.00;;;;;17.82;61.64;103452.88;5071557;28;8778;-66
2021/12/19 08:13:41;;;;;;;;;0.00;0.00;;;;;17.86;61.68;103452.13;5069967;28;8847;-67
2021/12/19 08:16:07;;;;;;;;;0.00;0.00;;;;;17.82;61.56;103437.03;5071130;28;8941;-66
2021/12/19 08:18:32;;;;;;;;;0.00;0.00;;;;;17.86;61.58;103445.09;5071958;28;8766;-66
2021/12/19 08:20:57;;;;;;;;;0.00;0.00;;;;;17.85;61.41;103439.75;5071595;28;8836;-67
2021/12/19 08:23:22;;;;;;;;;0.00;0.00;;;;;17.85;61.65;103434.47;5069619;28;8794;-67
2021/12/19 08:25:51;;;;;;;;;0.00;0.00;;;;;17.88;61.60;103436.34;5071066;28;8805;-66
2021/12/19 08:28:16;;;;;;;;;0.00;0.00;;;;;17.87;61.55;103432.78;5071191;28;8770;-66
2021/12/19 08:30:41;;;;;;;;;0.00;0.00;;;;;17.89;61.51;103439.00;5071546;28;8894;-66
2021/12/19 08:33:06;;;;;;;;;0.00;0.00;;;;;17.88;61.17;103434.59;5069978;28;8810;-65
2021/12/19 08:35:33;;;;;;;;;0.00;0.00;;;;;17.82;61.57;103423.81;5035484;28;1016610;-66
2021/12/19 08:37:58;;;;;;;;;0.00;0.00;;;;;17.85;61.44;103439.75;5072327;28;8817;-66
2021/12/19 08:40:24;;;;;;;;;0.00;0.00;;;;;17.85;61.39;103435.38;5072471;28;9062;-65
2021/12/19 08:42:53;;;;;;;;;0.00;0.00;;;;;17.88;61.50;103441.63;5069843;28;8797;-66
2021/12/19 08:45:21;;;;;;;;;0.00;0.00;;;;;17.88;61.45;103440.75;5072126;28;8812;-65
2021/12/19 08:47:47;;;;;;;;;0.00;0.00;;;;;17.88;61.32;103427.53;5072642;28;8933;-66
2021/12/19 08:50:13;;;;;;;;;0.00;0.00;;;;;17.88;61.57;103439.88;5072254;28;8923;-65
2021/12/19 08:52:39;;;;;;;;;0.00;0.00;;;;;17.88;61.37;103425.78;5072048;28;8798;-64
2021/12/19 08:55:06;;;;;;;;;0.00;0.00;;;;;17.85;61.52;103427.44;5072227;28;8781;-64
2021/12/19 08:57:31;;;;;;;;;0.00;0.00;;;;;17.89;61.93;103423.16;5071324;28;8770;-65
2021/12/19 08:59:57;;;;;;;;;1.00;1.00;;;;;17.93;62.25;103418.88;5071179;28;9031;-65
2021/12/19 09:02:23;;;;;;;;;3.00;1.00;;;;;17.95;63.04;103419.84;5071790;28;8754;-64
2021/12/19 09:04:49;;;;;;;;;2.00;1.67;;;;;17.96;63.80;103419.00;5070898;28;9957;-64
2021/12/19 09:07:18;;;;;;;;;2.00;1.33;;;;;18.02;64.36;103417.44;5072267;28;11406;-66
2021/12/19 09:09:44;;;;;;;;;2.67;2.67;;;;;18.08;64.67;103428.19;5070366;28;9567;-67
2021/12/19 09:12:10;;;;;;;;;4.33;2.67;;;;;18.11;64.97;103432.69;5070975;28;9191;-67
2021/12/19 09:14:35;;;;;;;;;3.00;3.00;;;;;18.07;65.96;103420.22;5071914;28;9022;-67
2021/12/19 09:17:02;;;;;;;;;3.33;2.00;;;;;18.11;66.80;103432.69;5071664;28;8766;-66
2021/12/19 09:19:27;;;;;;;;;1.00;1.00;;;;;18.12;66.48;103431.81;5070678;28;8793;-65
2021/12/19 09:21:52;;;;;;;;;2.00;2.00;;;;;18.10;67.26;103428.25;5071532;28;8950;-66
2021/12/19 09:24:19;;;;;;;;;2.33;2.33;;;;;18.07;67.18;103420.22;5071115;28;8806;-66
2021/12/19 09:26:45;;;;;;;;;3.00;2.00;;;;;18.05;67.10;103419.28;5071101;28;8782;-66
2021/12/19 09:29:10;;;;;;;;;3.67;2.33;;;;;18.06;66.80;103421.97;5070660;28;9076;-65
2021/12/19 09:31:35;;;;;;;;;3.00;2.00;;;;;18.04;66.83;103422.75;5068370;28;8836;-66
2021/12/19 09:34:01;;;;;;;;;3.33;2.00;;;;;18.04;67.22;103420.09;5071087;28;8823;-65
2021/12/19 09:36:26;;;;;;;;;2.00;2.00;;;;;18.05;66.21;103425.47;5071371;28;8762;-67
2021/12/19 09:38:52;;;;;;;;;1.00;1.00;;;;;18.02;66.77;103421.81;5070260;28;8769;-67
2021/12/19 09:41:28;;;;;;;;;1.00;1.00;;;;;17.95;66.92;103404.88;5071004;28;8876;-65
2021/12/19 09:43:55;;;;;;;;;1.00;1.00;;;;;18.04;66.79;103415.72;5068375;28;8964;-65
2021/12/19 09:46:22;;;;;;;;;1.00;1.00;;;;;18.03;66.48;103415.69;5070449;28;8988;-66
2021/12/19 09:48:49;;;;;;;;;0.33;0.00;;;;;18.00;66.70;103416.47;5070964;28;8912;-66
2021/12/19 09:51:16;;;;;;;;;4.00;2.00;;;;;18.00;66.60;103419.13;5071105;28;8953;-65
2021/12/19 09:53:42;;;;;;;;;3.00;1.75;;;;;18.01;66.49;103414.72;5068397;28;9022;-66
2021/12/19 09:56:08;;;;;;;;;1.67;1.67;;;;;17.99;66.45;103408.50;5058492;28;8921;-66
2021/12/19 09:58:35;;;;;;;;;0.00;0.00;;;;;18.00;66.24;103407.63;5070676;28;9055;-66
2021/12/19 10:01:03;;;;;;;;;1.00;1.00;;;;;17.99;66.42;103413.81;5069633;28;8797;-66
2021/12/19 10:03:28;;;;;;;;;1.25;1.00;;;;;18.00;66.10;103419.13;5069474;28;9031;-66
2021/12/19 10:06:16;;;;;;;;;2.00;1.00;;;;;18.01;66.21;103417.38;5070357;28;8878;-67
2021/12/19 10:08:43;;;;;;;;;1.00;0.00;;;;;17.99;65.98;103419.09;5069455;28;8896;-67
2021/12/19 10:11:42;;;;;;;;;0.00;0.00;;;;;17.96;66.10;103409.28;5070789;28;8941;-66
2021/12/19 10:14:32;;;;;;;;;1.00;0.00;;;;;17.98;66.02;103404.06;5069976;28;8871;-65
2021/12/19 10:17:00;;;;;;;;;0.33;0.33;;;;;17.98;65.88;103399.69;5069260;28;8891;-66
2021/12/19 10:19:48;;;;;;;;;0.00;0.00;;;;;17.99;65.66;103403.22;5070607;28;9046;-66
2021/12/19 10:22:37;;;;;;;;;1.00;1.00;;;;;17.99;65.94;103400.59;5069040;28;8852;-66
2021/12/19 10:25:22;;;;;;;;;1.33;0.00;;;;;17.98;65.73;103397.03;5048227;28;8936;-66
2021/12/19 10:27:53;;;;;;;;;1.00;1.00;;;;;17.98;65.69;103394.38;5047205;28;8874;-66
2021/12/19 10:30:34;;;;;;;;;1.00;1.00;;;;;17.99;65.53;103395.28;5050625;28;8787;-66
2021/12/19 10:33:11;;;;;;;;;0.00;0.00;;;;;18.00;65.76;103389.13;5057577;28;10414;-64
2021/12/19 10:35:42;;;;;;;;;0.00;0.00;;;;;17.99;65.38;103388.25;5069841;28;8893;-65
2021/12/19 10:38:26;;;;;;;;;1.67;0.67;;;;;17.96;65.55;103382.00;5071034;28;8860;-66
2021/12/19 10:41:13;;;;;;;;;0.00;0.00;;;;;17.99;65.47;103385.63;5067460;28;8956;-66
2021/12/19 10:44:01;;;;;;;;;0.00;0.00;;;;;17.97;65.32;103378.47;5068020;28;9121;-66
2021/12/19 10:46:31;;;;;;;;;0.33;0.33;;;;;17.99;65.08;103377.69;5070822;28;9722;-66
2021/12/19 10:48:58;;;;;;;;;0.00;0.00;;;;;18.00;65.44;103379.47;5069757;28;8947;-66
2021/12/19 10:51:24;;;;;;;;;0.33;0.33;;;;;18.00;65.13;103378.56;5070616;28;8942;-66
2021/12/19 10:53:56;;;;;;;;;0.00;0.00;;;;;18.02;65.12;103383.06;5070424;28;8947;-65
2021/12/19 10:56:30;;;;;;;;;0.67;0.67;;;;;18.01;65.17;103370.69;5069265;28;9584;-65
2021/12/19 10:59:05;;;;;;;;;0.00;0.00;;;;;18.03;65.17;103360.19;5070036;28;9125;-66
2021/12/19 11:01:38;;;;;;;;;1.33;0.67;;;;;18.07;65.07;103355.00;5070731;28;8959;-63
2021/12/19 11:04:12;;;;;;;;;0.00;0.00;;;;;18.09;64.76;103355.97;5062035;28;9097;-63
2021/12/19 11:06:53;;;;;;;;;2.00;0.00;;;;;18.10;64.77;103355.13;5070192;28;9018;-62
2021/12/19 11:09:22;;;;;;;;;0.00;0.00;;;;;18.02;64.80;103335.47;5044483;28;10580;-62
2021/12/19 11:12:01;;;;;;;;;0.00;0.00;;;;;18.09;64.44;103345.41;5048959;28;8943;-63
2021/12/19 11:14:48;;;;;;;;;0.00;0.00;;;;;18.10;64.57;103348.94;5054855;28;10482;-64
2021/12/19 11:17:18;;;;;;;;;0.00;0.00;;;;;18.12;64.19;103336.66;5068226;28;8930;-65
2021/12/19 11:19:44;;;;;;;;;0.00;0.00;;;;;18.10;64.20;103330.44;5068846;28;9067;-64
2021/12/19 11:22:11;;;;;;;;;0.00;0.00;;;;;18.06;64.29;103320.63;5070377;28;8848;-65
2021/12/19 11:24:37;;;;;;;;;0.00;0.00;;;;;18.10;64.14;103317.22;5072930;28;8963;-65
2021/12/19 11:27:06;;;;;;;;;1.00;0.00;;;;;18.06;64.01;103307.41;5073365;28;8852;-65
2021/12/19 11:29:34;;;;;;;;;0.00;0.00;;;;;18.07;64.23;103311.84;5073845;28;8779;-65
2021/12/19 11:32:04;;;;;;;;;0.00;0.00;;;;;18.07;64.19;103306.56;5072842;28;8880;-66
2021/12/19 11:34:57;;;;;;;;;0.33;0.00;;;;;18.07;64.25;103309.19;5073674;28;8890;-66
2021/12/19 11:37:35;;;;;;;;;0.00;0.00;;;;;18.09;63.88;103304.84;5072583;28;8956;-65
2021/12/19 11:40:03;;;;;;;;;0.00;0.00;;;;;18.08;63.95;103303.94;5072093;28;8987;-65
2021/12/19 11:42:32;;;;;;;;;0.00;0.00;;;;;18.07;64.11;103301.25;5073535;28;9010;-66
2021/12/19 11:50:48;;;;;;;;;0.33;0.33;;;;;18.08;64.16;103297.75;5025171;28;11269;-66
2021/12/19 11:53:16;;;;;;;;;0.00;0.00;;;;;18.08;63.89;103298.66;5071925;28;8873;-64
2021/12/19 11:55:44;;;;;;;;;0.33;0.33;;;;;18.02;63.80;103281.72;5069670;28;10505;-64
2021/12/19 11:58:09;;;;;;;;;1.33;0.33;;;;;18.06;63.77;103289.78;5071528;28;9014;-65
2021/12/19 12:00:47;;;;;;;;;0.33;0.33;;;;;18.07;63.95;103286.28;5071523;28;8970;-65
2021/12/19 12:03:12;;;;;;;;;0.00;0.00;;;;;18.08;63.87;103281.88;5073292;28;8771;-65
2021/12/19 12:05:43;;;;;;;;;0.00;0.00;;;;;18.07;63.64;103291.56;5065890;28;9802;-64
2021/12/19 12:08:09;;;;;;;;;0.00;0.00;;;;;18.08;63.98;103287.16;5072551;28;8791;-65
2021/12/19 12:11:01;;;;;;;;;0.00;0.00;;;;;18.06;63.70;103275.66;5065015;28;9034;-65
2021/12/19 12:13:41;;;;;;;;;0.00;0.00;;;;;18.08;63.80;103279.25;5048813;28;8792;-64
2021/12/19 12:18:44;;;;;;;;;0.33;0.33;;;;;18.08;63.58;103280.13;5052678;28;9009;-63
2021/12/19 12:21:19;;;;;;;;;0.00;0.00;;;;;18.09;63.62;103281.94;5055691;28;8965;-65
2021/12/19 12:23:53;;;;;;;;;1.00;1.00;;;;;18.04;63.48;103275.63;5071911;28;8784;-65
2021/12/19 12:26:30;;;;;;;;;0.00;0.00;;;;;18.10;63.70;103277.56;5061461;28;9027;-65
2021/12/19 12:28:56;;;;;;;;;1.00;1.00;;;;;18.10;63.73;103277.56;5051971;28;8922;-65
2021/12/19 12:31:24;;;;;;;;;0.33;0.33;;;;;18.08;63.23;103268.66;5052128;28;8900;-65
2021/12/19 12:33:50;;;;;;;;;1.00;1.00;;;;;18.08;63.39;103264.28;5052201;28;8926;-65
2021/12/19 12:36:16;;;;;;;;;1.67;1.67;;;;;18.11;63.49;103264.38;5050721;28;8984;-65
2021/12/19 12:38:45;;;;;;;;;0.33;0.33;;;;;18.09;63.15;103263.44;5051903;28;11294;-66
2021/12/19 12:41:26;;;;;;;;;0.00;0.00;;;;;18.11;63.46;103263.50;5052340;28;8943;-64
2021/12/19 12:43:51;;;;;;;;;0.00;0.00;;;;;18.14;63.56;103255.66;5052316;28;9008;-64
2021/12/19 12:46:20;;;;;;;;;0.00;0.00;;;;;18.19;63.46;103249.63;5052386;28;9015;-64
2021/12/19 12:49:06;;;;;;;;;0.67;0.00;;;;;18.23;63.63;103246.22;5051620;28;8778;-66
2021/12/19 12:51:35;;;;;;;;;0.00;0.00;;;;;18.13;63.44;103233.59;5043577;28;9714;-64
2021/12/19 12:54:05;;;;;;;;;0.00;0.00;;;;;18.16;63.84;103238.97;5043719;28;8924;-64